Time;durP1;ratioP1;P1;durP2;ratioP2;P2;SDS_P1;SDS_P2;PMS_P1;PMS_P2;Temp;Humidity;BMP_temperature;BMP_pressure;BME280_temperature;BME280_humidity;BME280_pressure;Samples;Min_cycle;Max_cycle;Signal;HPM_P1;HPM_P2
2022/04/22 00:01:59;;;;;;;8.50;5.57;;;;;11.80;100412.00;;;;5032129;28;20750;-66
2022/04/22 00:04:53;;;;;;;6.70;4.50;;;;;11.80;100404.00;;;;5025859;28;20368;-66
2022/04/22 00:07:39;;;;;;;9.33;4.87;;;;;11.70;100415.00;;;;5025714;28;20229;-69
2022/04/22 00:10:26;;;;;;;8.47;4.87;;;;;11.70;100409.00;;;;5025916;28;20294;-68
2022/04/22 00:13:12;;;;;;;9.07;5.07;;;;;11.70;100416.00;;;;5039168;28;20271;-68
2022/04/22 00:15:58;;;;;;;10.03;5.67;;;;;11.70;100421.00;;;;5044593;28;20228;-67
2022/04/22 00:18:45;;;;;;;8.30;5.30;;;;;11.60;100417.00;;;;5037687;28;20670;-66
2022/04/22 00:21:33;;;;;;;9.00;5.33;;;;;11.60;100412.00;;;;5038765;28;20229;-67
2022/04/22 00:24:20;;;;;;;8.70;5.10;;;;;11.60;100404.00;;;;5039709;28;20255;-68
2022/04/22 00:27:06;;;;;;;8.83;5.00;;;;;11.70;100400.00;;;;5025838;28;20325;-68
2022/04/22 00:29:52;;;;;;;9.63;5.53;;;;;11.70;100396.00;;;;5027170;28;20258;-68
2022/04/22 00:32:39;;;;;;;10.67;5.57;;;;;11.70;100401.00;;;;5044844;28;20621;-64
2022/04/22 00:35:26;;;;;;;8.13;5.40;;;;;11.60;100397.00;;;;5035725;28;20224;-67
2022/04/22 00:38:13;;;;;;;10.03;5.60;;;;;11.60;100397.00;;;;5027570;28;20610;-67
2022/04/22 00:41:00;;;;;;;11.33;5.17;;;;;11.70;100392.00;;;;5025261;28;20225;-68
2022/04/22 00:43:48;;;;;;;8.97;4.90;;;;;11.80;100399.00;;;;5034348;28;20964;-68
2022/04/22 00:46:34;;;;;;;9.50;5.57;;;;;11.80;100397.00;;;;5045398;28;20365;-68
2022/04/22 00:49:21;;;;;;;9.60;5.43;;;;;11.90;100392.00;;;;5025468;28;20224;-68
2022/04/22 00:52:08;;;;;;;9.70;5.13;;;;;11.80;100379.00;;;;5026363;28;20400;-70
2022/04/22 00:54:56;;;;;;;12.47;5.10;;;;;11.80;100382.00;;;;5026064;28;20237;-68
2022/04/22 00:57:43;;;;;;;9.70;5.00;;;;;11.90;100380.00;;;;5035224;28;20229;-70
2022/04/22 01:00:30;;;;;;;9.60;6.03;;;;;11.90;100372.00;;;;5042771;28;20770;-68
2022/04/22 01:03:16;;;;;;;12.40;5.20;;;;;12.00;100374.00;;;;5040203;28;20280;-69
2022/04/22 01:12:09;;;;;;;9.07;5.37;;;;;11.90;100370.00;;;;5030712;28;20221;-69
2022/04/22 01:14:56;;;;;;;10.47;6.00;;;;;12.10;100365.00;;;;5023646;28;20249;-68
2022/04/22 01:17:43;;;;;;;11.93;6.20;;;;;12.00;100354.00;;;;5024542;28;20244;-69
2022/04/22 01:20:29;;;;;;;9.30;5.30;;;;;12.00;100357.00;;;;5026065;28;20276;-70
2022/04/22 01:23:17;;;;;;;10.43;5.40;;;;;12.00;100356.00;;;;5030182;28;20238;-68
2022/04/22 01:26:03;;;;;;;10.83;6.40;;;;;11.90;100354.00;;;;5034133;28;20256;-68
2022/04/22 01:28:52;;;;;;;9.07;5.57;;;;;11.90;100355.00;;;;5024493;28;20229;-68
2022/04/22 01:31:38;;;;;;;14.20;6.03;;;;;11.70;100345.00;;;;5024725;28;20233;-68
2022/04/22 01:34:25;;;;;;;7.43;4.93;;;;;11.60;100345.00;;;;5039183;28;20224;-65
2022/04/22 01:37:11;;;;;;;12.73;6.83;;;;;11.60;100339.00;;;;5024479;28;20349;-68
2022/04/22 01:39:59;;;;;;;8.77;5.27;;;;;11.50;100340.00;;;;5026259;28;20359;-67
2022/04/22 01:42:45;;;;;;;10.70;5.93;;;;;11.50;100340.00;;;;5039879;28;20355;-68
2022/04/22 01:45:31;;;;;;;10.33;5.90;;;;;11.50;100340.00;;;;5038004;28;20237;-68
2022/04/22 01:48:18;;;;;;;13.60;6.10;;;;;11.50;100336.00;;;;5024130;28;20399;-66
2022/04/22 01:51:04;;;;;;;13.87;6.23;;;;;11.40;100324.00;;;;5024360;28;20237;-69
2022/04/22 01:53:51;;;;;;;12.53;6.10;;;;;11.30;100334.00;;;;5011275;28;20225;-68
2022/04/22 01:56:39;;;;;;;12.77;6.43;;;;;11.30;100334.00;;;;5025995;28;20276;-69
2022/04/22 01:59:25;;;;;;;13.87;6.77;;;;;11.30;100326.00;;;;5024365;28;20233;-72
2022/04/22 02:02:11;;;;;;;13.70;6.73;;;;;11.40;100340.00;;;;5024455;28;20232;-68
2022/04/22 02:04:58;;;;;;;13.77;6.40;;;;;11.30;100335.00;;;;5023766;28;20606;-67
2022/04/22 02:07:45;;;;;;;13.90;6.07;;;;;11.20;100322.00;;;;5023596;28;20307;-68
2022/04/22 02:10:31;;;;;;;12.53;6.53;;;;;11.10;100317.00;;;;5024420;28;20372;-67
2022/04/22 02:13:21;;;;;;;11.70;6.77;;;;;11.20;100313.00;;;;5037250;28;20705;-68
2022/04/22 02:16:07;;;;;;;11.30;6.73;;;;;11.10;100313.00;;;;5037176;28;20286;-69
2022/04/22 02:18:54;;;;;;;12.67;6.83;;;;;11.20;100318.00;;;;5037513;28;20850;-68
2022/04/22 02:21:41;;;;;;;13.20;7.00;;;;;11.20;100320.00;;;;5024156;28;20252;-69
2022/04/22 02:24:27;;;;;;;14.67;6.67;;;;;11.20;100311.00;;;;5024254;28;20264;-68
2022/04/22 02:30:19;;;;;;;14.67;6.87;;;;;11.20;100301.00;;;;5037286;28;20360;-68
2022/04/22 02:33:05;;;;;;;13.23;6.87;;;;;11.10;100305.00;;;;5044100;28;20286;-67
2022/04/22 02:35:52;;;;;;;13.20;6.37;;;;;11.10;100311.00;;;;5043428;28;20236;-69
2022/04/22 02:38:38;;;;;;;13.97;7.47;;;;;11.10;100304.00;;;;5043773;28;20458;-69
2022/04/22 02:47:45;;;;;;;12.90;7.67;;;;;11.20;100300.00;;;;5029194;28;20874;-68
2022/04/22 02:50:32;;;;;;;12.33;7.00;;;;;11.10;100308.00;;;;5039692;28;20234;-68
2022/04/22 02:53:18;;;;;;;18.00;8.53;;;;;11.20;100312.00;;;;5036193;28;20224;-68
2022/04/22 02:56:06;;;;;;;16.30;7.90;;;;;11.10;100317.00;;;;5034568;28;20232;-70
2022/04/22 02:58:54;;;;;;;14.33;7.97;;;;;11.10;100315.00;;;;5043803;28;20613;-69
2022/04/22 03:01:43;;;;;;;15.57;8.10;;;;;11.00;100300.00;;;;5039033;28;20237;-68
2022/04/22 03:04:30;;;;;;;15.40;8.67;;;;;11.00;100304.00;;;;5027681;28;20382;-69
2022/04/22 03:07:17;;;;;;;16.70;9.43;;;;;11.00;100306.00;;;;5026940;28;20786;-68
2022/04/22 03:10:04;;;;;;;19.87;9.17;;;;;10.90;100292.00;;;;5045959;28;20248;-68
2022/04/22 03:12:50;;;;;;;15.50;8.60;;;;;10.90;100300.00;;;;5046341;28;20351;-70
2022/04/22 03:15:38;;;;;;;18.10;8.53;;;;;11.10;100295.00;;;;5032430;28;20306;-69
2022/04/22 03:18:24;;;;;;;17.83;8.37;;;;;10.80;100299.00;;;;5028926;28;20237;-68
2022/04/22 03:21:12;;;;;;;18.87;8.90;;;;;10.90;100298.00;;;;5026691;28;20225;-68
2022/04/22 03:23:59;;;;;;;18.53;9.33;;;;;10.80;100297.00;;;;5036775;28;20585;-68
2022/04/22 03:26:45;;;;;;;21.30;9.87;;;;;10.80;100297.00;;;;5046103;28;20314;-68
2022/04/22 03:29:31;;;;;;;16.23;9.43;;;;;10.90;100299.00;;;;5044615;28;20246;-69
2022/04/22 03:32:17;;;;;;;18.13;9.30;;;;;11.00;100286.00;;;;5027057;28;20696;-68
2022/04/22 03:35:05;;;;;;;17.13;9.40;;;;;10.90;100282.00;;;;5031670;28;20239;-68
2022/04/22 03:37:52;;;;;;;21.37;9.60;;;;;11.00;100289.00;;;;5038732;28;21042;-70
2022/04/22 03:40:38;;;;;;;17.57;9.73;;;;;11.00;100288.00;;;;5027310;28;20229;-68
2022/04/22 03:43:25;;;;;;;17.67;9.27;;;;;11.00;100295.00;;;;5027412;28;20233;-65
2022/04/22 03:46:11;;;;;;;18.97;9.90;;;;;11.00;100293.00;;;;5037904;28;20232;-67
2022/04/22 03:49:00;;;;;;;19.47;9.27;;;;;10.90;100284.00;;;;5028055;28;20239;-67
2022/04/22 03:51:46;;;;;;;17.20;9.33;;;;;10.90;100277.00;;;;5037343;28;20232;-67
2022/04/22 03:54:34;;;;;;;18.07;9.67;;;;;10.80;100273.00;;;;5026690;28;20753;-67
2022/04/22 04:00:24;;;;;;;18.67;9.53;;;;;10.80;100272.00;;;;5026727;28;20711;-66
2022/04/22 04:03:12;;;;;;;17.23;9.90;;;;;11.00;100279.00;;;;5020358;28;20257;-64
2022/04/22 04:05:58;;;;;;;17.83;10.17;;;;;11.00;100284.00;;;;5026228;28;20816;-67
2022/04/22 04:15:57;;;;;;;18.13;9.43;;;;;11.00;100287.00;;;;5026145;28;20335;-67
2022/04/22 04:18:00;;;;;;;20.90;10.40;;;;;11.00;100284.00;;;;5029920;28;20228;-68
2022/04/22 04:23:50;;;;;;;17.97;10.13;;;;;11.00;100245.00;;;;5020796;28;20233;-69
2022/04/22 04:26:37;;;;;;;16.20;9.10;;;;;11.00;100270.00;;;;5025601;28;20237;-67
2022/04/22 04:29:26;;;;;;;16.03;9.17;;;;;11.20;100274.00;;;;5025828;28;20232;-65
2022/04/22 04:32:12;;;;;;;19.00;8.93;;;;;11.30;100281.00;;;;5025086;28;20944;-69
2022/04/22 04:34:58;;;;;;;16.03;8.93;;;;;11.20;100275.00;;;;5042693;28;20247;-67
2022/04/22 04:37:44;;;;;;;15.27;9.20;;;;;11.30;100273.00;;;;5039279;28;20308;-70
2022/04/22 04:40:32;;;;;;;18.87;8.63;;;;;11.20;100269.00;;;;5025847;28;20229;-68
2022/04/22 04:43:18;;;;;;;17.67;8.97;;;;;11.20;100275.00;;;;5025093;28;20233;-66
2022/04/22 04:46:06;;;;;;;15.30;8.10;;;;;11.20;100272.00;;;;5025633;28;20302;-68
2022/04/22 04:48:55;;;;;;;16.07;8.83;;;;;11.40;100269.00;;;;5021389;28;20307;-67
2022/04/22 04:51:42;;;;;;;17.63;9.20;;;;;11.30;100268.00;;;;5025409;28;20364;-68
2022/04/22 04:54:28;;;;;;;20.40;9.23;;;;;11.20;100268.00;;;;5024488;28;20232;-67
2022/04/22 04:57:15;;;;;;;16.30;8.70;;;;;11.30;100261.00;;;;5044688;28;20230;-67
2022/04/22 05:00:02;;;;;;;15.27;8.83;;;;;11.30;100257.00;;;;5035377;28;20233;-69
2022/04/22 05:02:49;;;;;;;18.40;8.90;;;;;11.40;100271.00;;;;5019288;28;20288;-68
2022/04/22 05:05:35;;;;;;;16.00;8.57;;;;;11.30;100254.00;;;;5025366;28;20393;-67
2022/04/22 05:08:22;;;;;;;20.90;9.43;;;;;11.40;100266.00;;;;5004683;28;20330;-68
2022/04/22 05:11:08;;;;;;;16.93;8.97;;;;;11.40;100265.00;;;;5027115;28;20233;-68
2022/04/22 05:13:55;;;;;;;14.03;7.63;;;;;11.40;100263.00;;;;5024262;28;20225;-67
2022/04/22 05:16:41;;;;;;;16.30;8.80;;;;;11.40;100263.00;;;;5036479;28;20267;-67
2022/04/22 05:19:28;;;;;;;17.00;9.00;;;;;11.50;100238.00;;;;5016939;28;20627;-68
2022/04/22 05:22:15;;;;;;;16.80;8.77;;;;;11.40;100281.00;;;;5024617;28;20272;-68
2022/04/22 05:25:01;;;;;;;17.13;9.03;;;;;11.40;100271.00;;;;5024925;28;20933;-68
2022/04/22 05:27:48;;;;;;;17.10;8.77;;;;;11.50;100275.00;;;;5040272;28;20767;-68
2022/04/22 05:33:39;;;;;;;17.27;9.07;;;;;11.50;100260.00;;;;5024907;28;20303;-68
2022/04/22 05:36:27;;;;;;;16.93;8.60;;;;;11.50;100264.00;;;;5024566;28;20233;-67
2022/04/22 05:39:13;;;;;;;14.80;8.67;;;;;11.60;100256.00;;;;5026719;28;20237;-67
2022/04/22 05:42:00;;;;;;;18.70;9.43;;;;;11.60;100264.00;;;;5033173;28;20235;-67
2022/04/22 05:44:46;;;;;;;16.83;9.00;;;;;11.50;100259.00;;;;5031896;28;20228;-67
2022/04/22 05:47:33;;;;;;;16.67;8.83;;;;;11.60;100257.00;;;;5044468;28;20236;-65
2022/04/22 05:50:20;;;;;;;20.07;9.90;;;;;11.50;100259.00;;;;5026642;28;20225;-65
2022/04/22 05:53:07;;;;;;;16.73;8.93;;;;;11.50;100258.00;;;;5024521;28;20718;-66
2022/04/22 05:55:54;;;;;;;18.07;8.53;;;;;11.50;100257.00;;;;5040777;28;20815;-66
2022/04/22 05:58:40;;;;;;;20.53;9.70;;;;;11.60;100235.00;;;;5032392;28;20287;-67
2022/04/22 06:01:26;;;;;;;18.90;9.37;;;;;11.50;100253.00;;;;5024697;28;20289;-66
2022/04/22 06:04:12;;;;;;;17.67;9.57;;;;;11.60;100255.00;;;;5024832;28;20333;-66
2022/04/22 06:06:59;;;;;;;18.90;9.40;;;;;11.60;100257.00;;;;5024883;28;20282;-66
2022/04/22 06:12:51;;;;;;;17.37;9.43;;;;;11.50;100257.00;;;;5029544;28;20228;-65
2022/04/22 06:15:37;;;;;;;18.53;9.87;;;;;11.60;100251.00;;;;5030555;28;20255;-67
2022/04/22 06:18:26;;;;;;;17.60;8.67;;;;;11.80;100243.00;;;;5030361;28;20233;-67
2022/04/22 06:21:12;;;;;;;18.53;9.03;;;;;11.80;100253.00;;;;5035988;28;20229;-67
2022/04/22 06:23:58;;;;;;;21.73;9.53;;;;;11.80;100239.00;;;;5027727;28;20233;-68
2022/04/22 06:26:46;;;;;;;19.53;10.03;;;;;11.80;100240.00;;;;5028881;28;20229;-69
2022/04/22 06:29:33;;;;;;;17.33;9.40;;;;;11.90;100242.00;;;;5028946;28;20233;-67
2022/04/22 06:32:22;;;;;;;22.93;10.00;;;;;12.00;100250.00;;;;5033899;28;20718;-66
2022/04/22 06:35:11;;;;;;;21.40;10.23;;;;;12.10;100247.00;;;;5037854;28;20236;-68
2022/04/22 06:37:57;;;;;;;22.13;10.27;;;;;12.00;100256.00;;;;5044983;28;20261;-67
2022/04/22 06:46:54;;;;;;;18.80;10.10;;;;;11.90;100248.00;;;;5021384;28;20777;-67
2022/04/22 06:49:41;;;;;;;22.50;11.33;;;;;12.10;100254.00;;;;5030771;28;20245;-69
2022/04/22 06:52:28;;;;;;;21.07;10.77;;;;;12.20;100244.00;;;;5044240;28;20229;-71
2022/04/22 06:55:15;;;;;;;22.70;11.00;;;;;12.20;100232.00;;;;5039218;28;20236;-68
2022/04/22 06:58:03;;;;;;;21.47;10.73;;;;;12.30;100237.00;;;;5051313;28;20244;-68
2022/04/22 07:00:50;;;;;;;21.43;10.30;;;;;12.40;100236.00;;;;5040980;28;20232;-65
2022/04/22 07:03:37;;;;;;;20.50;10.23;;;;;12.50;100232.00;;;;5043028;28;20236;-67
2022/04/22 07:06:23;;;;;;;20.90;10.20;;;;;12.60;100237.00;;;;5034519;28;20244;-66
2022/04/22 07:09:11;;;;;;;18.07;9.77;;;;;12.50;100228.00;;;;5043520;28;20236;-67
2022/04/22 07:11:59;;;;;;;19.70;9.70;;;;;12.50;100233.00;;;;5027327;28;20447;-66
2022/04/22 07:14:47;;;;;;;18.00;9.63;;;;;12.60;100233.00;;;;5027437;28;20224;-66
2022/04/22 07:17:35;;;;;;;21.20;11.17;;;;;12.80;100229.00;;;;5035619;28;20257;-67
2022/04/22 07:20:22;;;;;;;19.40;10.37;;;;;13.00;100239.00;;;;5036476;28;20244;-66
2022/04/22 07:23:12;;;;;;;20.97;10.97;;;;;13.00;100238.00;;;;5041438;28;20236;-67
2022/04/22 07:25:59;;;;;;;21.17;10.73;;;;;13.10;100226.00;;;;5034843;28;20235;-65
2022/04/22 07:28:47;;;;;;;21.73;10.73;;;;;13.10;100228.00;;;;5040534;28;20279;-65
2022/04/22 07:31:34;;;;;;;18.47;10.33;;;;;12.90;100234.00;;;;5034700;28;20937;-66
2022/04/22 07:34:22;;;;;;;20.13;10.90;;;;;12.90;100234.00;;;;5037139;28;20236;-68
2022/04/22 07:37:09;;;;;;;16.83;10.20;;;;;13.00;100238.00;;;;5025721;28;20240;-68
2022/04/22 07:39:56;;;;;;;18.40;9.87;;;;;13.10;100227.00;;;;5041325;28;20236;-70
2022/04/22 07:49:13;;;;;;;17.57;9.57;;;;;13.10;100220.00;;;;5040559;28;20788;-68
2022/04/22 07:52:01;;;;;;;16.07;9.23;;;;;13.00;100219.00;;;;5046144;28;20252;-65
2022/04/22 07:54:47;;;;;;;15.73;9.23;;;;;13.10;100218.00;;;;5037237;28;20240;-66
2022/04/22 07:57:33;;;;;;;15.77;8.13;;;;;13.00;100213.00;;;;5040514;28;20287;-66
2022/04/22 08:00:20;;;;;;;16.70;8.97;;;;;13.10;100213.00;;;;5038237;28;20933;-66
2022/04/22 08:03:06;;;;;;;15.70;8.90;;;;;13.20;100201.00;;;;5050146;28;20232;-67
2022/04/22 08:05:53;;;;;;;15.37;8.70;;;;;13.40;100213.00;;;;5035794;28;21090;-67
2022/04/22 08:08:40;;;;;;;16.30;8.80;;;;;13.70;100214.00;;;;5034981;28;20236;-66
2022/04/22 08:11:28;;;;;;;18.73;9.27;;;;;13.90;100208.00;;;;5046691;28;20348;-68
2022/04/22 08:14:14;;;;;;;15.87;8.73;;;;;14.20;100202.00;;;;5029844;28;20706;-66
2022/04/22 08:17:01;;;;;;;16.27;9.23;;;;;14.50;100210.00;;;;5039498;28;20797;-68
2022/04/22 08:19:47;;;;;;;17.20;9.17;;;;;14.70;100213.00;;;;5038263;28;20229;-65
2022/04/22 08:22:36;;;;;;;18.60;9.07;;;;;14.60;100217.00;;;;5032203;28;20303;-68
2022/04/22 08:25:24;;;;;;;15.60;8.67;;;;;14.50;100202.00;;;;5028728;28;20318;-66
2022/04/22 08:28:11;;;;;;;16.90;9.63;;;;;14.50;100199.00;;;;5039743;28;20238;-68
2022/04/22 08:30:57;;;;;;;13.57;8.60;;;;;14.70;100200.00;;;;5028131;28;20244;-69
2022/04/22 08:33:45;;;;;;;14.70;9.07;;;;;14.80;100210.00;;;;5029101;28;20232;-68
2022/04/22 08:36:33;;;;;;;17.07;9.33;;;;;14.90;100216.00;;;;5026461;28;20349;-68
2022/04/22 08:39:19;;;;;;;18.03;8.83;;;;;14.80;100203.00;;;;5026024;28;20778;-68
2022/04/22 08:42:07;;;;;;;15.40;9.00;;;;;15.20;100199.00;;;;5031986;28;20704;-66
2022/04/22 08:45:14;;;;;;;14.97;8.57;;;;;15.50;100201.00;;;;5025512;28;20253;-69
2022/04/22 08:51:08;;;;;;;17.43;8.90;;;;;16.00;100203.00;;;;5025691;28;20237;-66
2022/04/22 08:53:57;;;;;;;14.87;8.73;;;;;15.90;100210.00;;;;5025672;28;20246;-66
2022/04/22 08:56:44;;;;;;;13.67;8.83;;;;;15.70;100207.00;;;;5025892;28;20230;-66
2022/04/22 08:59:31;;;;;;;15.60;8.83;;;;;15.90;100199.00;;;;5031820;28;20236;-67
2022/04/22 09:02:19;;;;;;;17.83;8.37;;;;;15.70;100189.00;;;;5026105;28;20292;-66
2022/04/22 09:05:08;;;;;;;14.77;8.33;;;;;15.50;100194.00;;;;5026044;28;20227;-68
2022/04/22 09:07:55;;;;;;;13.37;8.50;;;;;15.30;100194.00;;;;5032430;28;20295;-67
2022/04/22 09:10:42;;;;;;;15.80;9.03;;;;;15.30;100180.00;;;;5028257;28;20261;-67
2022/04/22 09:13:30;;;;;;;14.63;8.53;;;;;15.60;100186.00;;;;5025567;28;20232;-67
2022/04/22 09:16:21;;;;;;;20.37;9.80;;;;;15.60;100185.00;;;;5035822;28;20232;-65
2022/04/22 09:19:08;;;;;;;15.13;9.00;;;;;15.60;100179.00;;;;5031898;28;20624;-67
2022/04/22 09:21:58;;;;;;;15.37;9.07;;;;;15.70;100177.00;;;;5023604;28;20229;-68
2022/04/22 09:24:49;;;;;;;12.60;8.00;;;;;15.70;100177.00;;;;5025265;28;20230;-67
2022/04/22 09:27:37;;;;;;;16.40;8.47;;;;;15.70;100177.00;;;;5024939;28;20241;-67
2022/04/22 09:30:26;;;;;;;14.70;8.83;;;;;15.70;100167.00;;;;5030519;28;20239;-68
2022/04/22 09:33:14;;;;;;;14.30;7.87;;;;;15.80;100171.00;;;;5042142;28;20233;-66
2022/04/22 09:45:35;;;;;;;12.20;8.13;;;;;15.60;100176.00;;;;5044382;28;20871;-67
2022/04/22 09:48:23;;;;;;;12.40;8.07;;;;;15.40;100173.00;;;;5043949;28;20798;-68
2022/04/22 09:51:21;;;;;;;15.47;7.77;;;;;15.60;100163.00;;;;5024517;28;20343;-68
2022/04/22 09:54:10;;;;;;;13.03;8.47;;;;;15.50;100170.00;;;;5015359;28;20239;-69
2022/04/22 09:56:57;;;;;;;12.90;7.93;;;;;15.40;100171.00;;;;5025509;28;20688;-68
2022/04/22 09:59:44;;;;;;;14.43;8.63;;;;;15.50;100163.00;;;;5024966;28;20299;-68
2022/04/22 10:02:31;;;;;;;13.10;8.00;;;;;15.60;100162.00;;;;5028197;28;20303;-68
2022/04/22 10:05:22;;;;;;;15.80;7.73;;;;;15.70;100141.00;;;;5028283;28;20268;-68
2022/04/22 10:08:10;;;;;;;14.53;8.77;;;;;15.60;100155.00;;;;5028403;28;20245;-66
2022/04/22 10:11:00;;;;;;;11.87;7.50;;;;;15.40;100159.00;;;;5028589;28;20264;-68
2022/04/22 10:13:47;;;;;;;15.57;7.90;;;;;15.30;100149.00;;;;5028458;28;20238;-67
2022/04/22 10:16:34;;;;;;;14.50;8.27;;;;;15.30;100157.00;;;;5029959;28;20309;-67
2022/04/22 10:19:20;;;;;;;13.77;8.53;;;;;15.60;100150.00;;;;5033098;28;20229;-68
2022/04/22 10:22:11;;;;;;;12.77;7.67;;;;;15.90;100129.00;;;;5028693;28;20237;-68
2022/04/22 10:24:58;;;;;;;12.30;8.07;;;;;15.90;100149.00;;;;5028361;28;20235;-68
2022/04/22 10:27:46;;;;;;;14.63;8.20;;;;;15.60;100140.00;;;;5026115;28;20246;-66
2022/04/22 10:30:33;;;;;;;14.20;8.23;;;;;15.60;100150.00;;;;5026608;28;20284;-67
2022/04/22 10:33:25;;;;;;;13.00;7.93;;;;;15.70;100137.00;;;;5027946;28;20610;-68
2022/04/22 10:36:13;;;;;;;13.23;8.00;;;;;15.70;100121.00;;;;5027877;28;21033;-67
2022/04/22 10:39:01;;;;;;;16.13;9.10;;;;;15.70;100143.00;;;;5035129;28;20762;-68
2022/04/22 10:41:47;;;;;;;14.47;8.10;;;;;15.60;100141.00;;;;5028433;28;20245;-65
2022/04/22 10:47:39;;;;;;;13.23;8.10;;;;;15.50;100151.00;;;;5029777;28;20229;-66
2022/04/22 10:50:30;;;;;;;15.53;8.77;;;;;15.50;100146.00;;;;5032408;28;20241;-68
2022/04/22 10:53:24;;;;;;;15.80;8.60;;;;;15.30;100114.00;;;;5027106;28;20230;-69
2022/04/22 10:56:34;;;;;;;15.30;9.10;;;;;15.40;100144.00;;;;5027923;28;20226;-69
2022/04/22 10:59:27;;;;;;;13.57;8.53;;;;;15.40;100145.00;;;;5029748;28;20239;-68
2022/04/22 11:02:29;;;;;;;12.63;7.90;;;;;15.60;100145.00;;;;5027519;28;20324;-67
2022/04/22 11:05:35;;;;;;;14.63;7.77;;;;;15.90;100135.00;;;;5029749;28;20238;-69
2022/04/22 11:08:28;;;;;;;15.87;8.63;;;;;16.30;100136.00;;;;5032736;28;20274;-67
2022/04/22 11:11:22;;;;;;;15.10;8.70;;;;;16.40;100132.00;;;;5027356;28;20937;-67
2022/04/22 11:14:20;;;;;;;13.17;8.23;;;;;16.50;100118.00;;;;5026340;28;20240;-68
2022/04/22 11:17:45;;;;;;;13.27;8.10;;;;;16.60;100125.00;;;;5029557;28;20471;-68
2022/04/22 11:20:31;;;;;;;14.47;8.27;;;;;16.60;100137.00;;;;5026838;28;20269;-67
2022/04/22 11:23:18;;;;;;;12.90;8.17;;;;;16.50;100122.00;;;;5036020;28;20309;-67
2022/04/22 11:26:05;;;;;;;15.27;7.43;;;;;16.40;100128.00;;;;5039888;28;20222;-67
2022/04/22 11:28:51;;;;;;;14.37;8.97;;;;;16.00;100123.00;;;;5027523;28;20287;-69
2022/04/22 11:31:40;;;;;;;15.10;8.53;;;;;15.70;100121.00;;;;5039109;28;20258;-65
2022/04/22 11:34:57;;;;;;;14.80;8.53;;;;;15.60;100122.00;;;;5047746;28;20228;-67
2022/04/22 11:37:43;;;;;;;14.23;8.37;;;;;15.60;100120.00;;;;5034079;28;20247;-67
2022/04/22 11:40:29;;;;;;;13.63;7.93;;;;;15.70;100120.00;;;;5026608;28;20237;-68
2022/04/22 11:43:15;;;;;;;15.27;7.77;;;;;15.80;100125.00;;;;5026929;28;20308;-66
2022/04/22 11:46:02;;;;;;;13.70;8.40;;;;;16.10;100124.00;;;;5034510;28;20359;-67
2022/04/22 11:48:50;;;;;;;14.03;8.30;;;;;16.30;100120.00;;;;5027902;28;20320;-67
2022/04/22 11:51:37;;;;;;;12.80;8.40;;;;;16.50;100133.00;;;;5027202;28;20731;-67
2022/04/22 11:54:24;;;;;;;13.70;8.47;;;;;16.70;100117.00;;;;5027580;28;20235;-67
2022/04/22 11:57:11;;;;;;;14.10;8.30;;;;;16.90;100113.00;;;;5027663;28;20240;-67
2022/04/22 12:06:03;;;;;;;11.90;7.67;;;;;16.90;100116.00;;;;5031108;28;20365;-68
2022/04/22 12:08:53;;;;;;;13.10;8.03;;;;;16.90;100121.00;;;;5025845;28;20304;-68
2022/04/22 12:11:41;;;;;;;13.40;8.20;;;;;16.70;100119.00;;;;5026357;28;20268;-68
2022/04/22 12:14:30;;;;;;;12.50;7.87;;;;;16.50;100114.00;;;;5027341;28;20260;-65
2022/04/22 12:17:24;;;;;;;11.80;8.03;;;;;16.70;100106.00;;;;5036408;28;20316;-68
2022/04/22 12:20:12;;;;;;;12.53;7.60;;;;;16.60;100101.00;;;;5026252;28;20236;-68
2022/04/22 12:23:00;;;;;;;14.00;8.33;;;;;16.50;100087.00;;;;5026327;28;20297;-65
2022/04/22 12:25:54;;;;;;;14.57;8.33;;;;;16.70;100096.00;;;;5029275;28;20234;-68
2022/04/22 12:28:56;;;;;;;12.50;8.13;;;;;16.90;100082.00;;;;5031555;28;20236;-68
2022/04/22 12:31:44;;;;;;;14.60;7.67;;;;;16.60;100089.00;;;;5025928;28;20370;-68
2022/04/22 12:34:32;;;;;;;12.53;7.63;;;;;16.60;100088.00;;;;5031576;28;20233;-68
2022/04/22 12:37:19;;;;;;;13.37;7.63;;;;;16.60;100092.00;;;;5025407;28;20259;-68
2022/04/22 12:40:10;;;;;;;12.33;7.77;;;;;16.70;100090.00;;;;5029406;28;20236;-65
2022/04/22 12:43:26;;;;;;;12.20;6.80;;;;;17.00;100088.00;;;;5039739;28;20232;-69
2022/04/22 12:52:47;;;;;;;12.47;7.83;;;;;17.10;100081.00;;;;5025524;28;20253;-65
2022/04/22 12:55:35;;;;;;;12.53;7.00;;;;;17.10;100061.00;;;;5025723;28;20304;-68
2022/04/22 12:58:21;;;;;;;21.27;9.50;;;;;16.90;100054.00;;;;5012664;28;20808;-67
2022/04/22 13:01:18;;;;;;;13.00;8.13;;;;;16.80;100067.00;;;;5025866;28;20236;-66
2022/04/22 13:04:06;;;;;;;10.63;6.60;;;;;16.60;100070.00;;;;5031125;28;20238;-68
2022/04/22 13:06:53;;;;;;;11.70;6.67;;;;;16.50;100059.00;;;;5025240;28;20601;-68
2022/04/22 13:09:39;;;;;;;14.93;7.37;;;;;16.50;100061.00;;;;5025170;28;20229;-68
2022/04/22 13:12:26;;;;;;;10.07;6.20;;;;;16.70;100062.00;;;;5042347;28;20241;-68
2022/04/22 13:15:17;;;;;;;11.63;6.63;;;;;16.90;100062.00;;;;5042726;28;20339;-66
2022/04/22 13:18:03;;;;;;;9.70;6.00;;;;;17.00;100046.00;;;;5029566;28;20230;-69
2022/04/22 13:20:52;;;;;;;10.80;6.47;;;;;17.30;100050.00;;;;5032063;28;20371;-67
2022/04/22 13:23:38;;;;;;;8.87;6.37;;;;;17.80;100057.00;;;;5044113;28;20240;-64
2022/04/22 13:26:25;;;;;;;8.87;5.73;;;;;17.80;100054.00;;;;5039144;28;20233;-69
2022/04/22 13:29:13;;;;;;;10.67;6.27;;;;;17.50;100048.00;;;;5044924;28;20236;-68
2022/04/22 13:31:59;;;;;;;7.20;5.20;;;;;17.20;100048.00;;;;5027637;28;20240;-68
2022/04/22 13:34:45;;;;;;;9.67;6.43;;;;;16.90;100049.00;;;;5025087;28;20244;-69
2022/04/22 13:37:32;;;;;;;8.87;6.10;;;;;16.40;100056.00;;;;5023993;28;20237;-70
2022/04/22 13:40:18;;;;;;;11.80;6.77;;;;;16.20;100056.00;;;;5024712;28;20232;-69
2022/04/22 13:43:04;;;;;;;10.97;7.07;;;;;16.00;100053.00;;;;5024911;28;20299;-70
2022/04/22 13:52:25;;;;;;;15.57;7.20;;;;;15.70;100053.00;;;;4962704;28;20245;-68
2022/04/22 13:55:12;;;;;;;11.23;6.73;;;;;15.80;100037.00;;;;5024251;28;20233;-67
2022/04/22 13:57:58;;;;;;;11.00;7.00;;;;;16.00;100051.00;;;;5024478;28;20236;-69
2022/04/22 14:00:44;;;;;;;11.57;7.10;;;;;16.50;100040.00;;;;5024704;28;20698;-69
2022/04/22 14:03:32;;;;;;;11.83;6.57;;;;;17.10;100042.00;;;;5026863;28;20233;-69
2022/04/22 14:06:19;;;;;;;9.20;6.27;;;;;17.80;100029.00;;;;5029941;28;20732;-69
2022/04/22 14:09:05;;;;;;;10.57;6.73;;;;;18.00;100034.00;;;;5024711;28;20245;-69
2022/04/22 14:11:52;;;;;;;9.40;6.20;;;;;18.00;100040.00;;;;5028903;28;20244;-69
2022/04/22 14:14:38;;;;;;;12.47;6.27;;;;;17.90;100039.00;;;;5044492;28;20350;-68
2022/04/22 14:17:25;;;;;;;9.50;6.73;;;;;17.90;100033.00;;;;5024021;28;20224;-69
2022/04/22 14:20:13;;;;;;;11.37;7.20;;;;;18.10;100022.00;;;;5024548;28;20712;-69
2022/04/22 14:22:59;;;;;;;10.90;6.87;;;;;18.60;100022.00;;;;5030427;28;20280;-68
2022/04/22 14:25:46;;;;;;;11.67;6.67;;;;;18.90;100027.00;;;;5024426;28;20226;-69
2022/04/22 14:28:32;;;;;;;9.20;6.20;;;;;18.90;100024.00;;;;5023940;28;20233;-67
2022/04/22 14:31:18;;;;;;;9.50;6.47;;;;;19.40;100021.00;;;;5024208;28;20230;-68
2022/04/22 14:34:05;;;;;;;8.83;6.20;;;;;19.80;100022.00;;;;5026786;28;20690;-67
2022/04/22 14:36:53;;;;;;;10.30;6.47;;;;;19.90;100020.00;;;;5024151;28;20769;-68
2022/04/22 14:39:39;;;;;;;11.50;7.30;;;;;20.20;100020.00;;;;5029210;28;20907;-70
2022/04/22 14:42:25;;;;;;;8.53;6.10;;;;;20.60;100020.00;;;;5043993;28;20228;-66
2022/04/22 14:45:11;;;;;;;10.50;6.70;;;;;21.10;100025.00;;;;5044223;28;20245;-69
2022/04/22 14:48:05;;;;;;;10.47;6.63;;;;;21.10;100023.00;;;;5029464;28;20234;-69
2022/04/22 14:50:51;;;;;;;10.67;6.83;;;;;21.50;100020.00;;;;5034235;28;20320;-68
2022/04/22 14:53:39;;;;;;;11.87;7.47;;;;;22.50;100013.00;;;;5035077;28;20251;-69
2022/04/22 14:56:27;;;;;;;9.97;7.33;;;;;22.60;100024.00;;;;5047495;28;20602;-69
2022/04/22 14:59:29;;;;;;;11.50;7.50;;;;;22.90;100014.00;;;;5047352;28;20239;-69
2022/04/22 15:02:15;;;;;;;10.77;7.50;;;;;23.70;100013.00;;;;5047670;28;20231;-70